Portada
METAR-TAF:

METAR-TAF

Aeroports :

Katima Mulilo, Namíbia

latitud: 17-38-04S, longitud: 024-10-36E, altitud: 985 m

Observació

L'informe es va fer fa 30 minuts, a les 03:00 UTC
Vent 3 kt del Nord/Nord-Oest
Temperatura 24°C
Humitat 74%
Pressió 1014 hPa

METAR: FYKM 240300Z AUTO 33003KT //// // ////// 24/19 Q1014

Hora: 05:30 (03:30 UTC)

Pronòstic

L'informe es va fer fa 1 hora i 30 minuts, a les 02:00 UTC
Pronòstic vàlid del 24 a les 03 UTC al 24 a les 12 UTC
Vent kt del Nord
Visibilitat 10 km o més
Núvols disperses a una alçada de 3000 ft

TAF: FYKM 240200Z 2403/2412 00000KT 9999 SCT030

Observacions i pronòstics meteorològics de més de 4000 aeroports (METAR i TAF).

Les estacions disponibles són els punts grocs i vermells al mapa.

Posi el ratolí al punt desitjat per veure el nom de l'estació.

Feu clic per veure les observacions i els pronòstics meteorològics.

Per canviar el mapa: feu clic els botons verds amb una creu de color negre per apropar; al botó verd amb un guió per allunyar la imatge; o en les fletxes verdes per a mapes adjacents.


METAR-TAF: